sensor_id;sensor_type;location;lat;lon;timestamp;P1;durP1;ratioP1;P2;durP2;ratioP2
37983;SDS011;64625;50.882;4.376;2023-02-12T00:00:39;23.50;;;14.60;;
37983;SDS011;64625;50.882;4.376;2023-02-12T00:03:06;33.22;;;16.02;;
37983;SDS011;64625;50.882;4.376;2023-02-12T00:05:32;27.45;;;16.08;;
37983;SDS011;64625;50.882;4.376;2023-02-12T00:07:58;24.52;;;16.60;;
37983;SDS011;64625;50.882;4.376;2023-02-12T00:10:23;22.75;;;15.30;;
37983;SDS011;64625;50.882;4.376;2023-02-12T00:12:52;21.90;;;13.70;;
37983;SDS011;64625;50.882;4.376;2023-02-12T00:15:18;41.20;;;14.45;;
37983;SDS011;64625;50.882;4.376;2023-02-12T00:17:44;19.55;;;13.93;;
37983;SDS011;64625;50.882;4.376;2023-02-12T00:20:10;19.15;;;14.02;;
37983;SDS011;64625;50.882;4.376;2023-02-12T00:22:36;22.67;;;12.82;;
37983;SDS011;64625;50.882;4.376;2023-02-12T00:25:02;20.17;;;12.45;;
37983;SDS011;64625;50.882;4.376;2023-02-12T00:27:31;23.90;;;14.25;;
37983;SDS011;64625;50.882;4.376;2023-02-12T00:29:58;23.50;;;14.55;;
37983;SDS011;64625;50.882;4.376;2023-02-12T00:32:24;26.17;;;14.13;;
37983;SDS011;64625;50.882;4.376;2023-02-12T00:34:49;21.80;;;12.55;;
37983;SDS011;64625;50.882;4.376;2023-02-12T00:37:15;15.38;;;12.93;;
37983;SDS011;64625;50.882;4.376;2023-02-12T00:39:41;21.50;;;12.13;;
37983;SDS011;64625;50.882;4.376;2023-02-12T00:42:07;20.17;;;12.68;;
37983;SDS011;64625;50.882;4.376;2023-02-12T00:44:33;17.65;;;12.88;;
37983;SDS011;64625;50.882;4.376;2023-02-12T00:46:59;17.40;;;12.30;;
37983;SDS011;64625;50.882;4.376;2023-02-12T00:49:30;25.90;;;14.55;;
37983;SDS011;64625;50.882;4.376;2023-02-12T00:52:00;19.42;;;13.10;;
37983;SDS011;64625;50.882;4.376;2023-02-12T00:54:27;20.63;;;14.45;;
37983;SDS011;64625;50.882;4.376;2023-02-12T00:56:54;21.25;;;13.57;;
37983;SDS011;64625;50.882;4.376;2023-02-12T00:59:23;32.50;;;14.80;;
37983;SDS011;64625;50.882;4.376;2023-02-12T01:01:50;20.02;;;14.25;;
37983;SDS011;64625;50.882;4.376;2023-02-12T01:04:18;32.20;;;15.20;;
37983;SDS011;64625;50.882;4.376;2023-02-12T01:06:44;24.70;;;13.85;;
37983;SDS011;64625;50.882;4.376;2023-02-12T01:09:10;18.45;;;12.57;;
37983;SDS011;64625;50.882;4.376;2023-02-12T01:11:35;22.48;;;12.95;;
37983;SDS011;64625;50.882;4.376;2023-02-12T01:14:02;17.92;;;12.20;;
37983;SDS011;64625;50.882;4.376;2023-02-12T01:16:28;20.58;;;14.02;;
37983;SDS011;64625;50.882;4.376;2023-02-12T01:19:00;22.58;;;15.55;;
37983;SDS011;64625;50.882;4.376;2023-02-12T01:21:27;22.75;;;14.50;;
37983;SDS011;64625;50.882;4.376;2023-02-12T01:23:55;25.50;;;14.27;;
37983;SDS011;64625;50.882;4.376;2023-02-12T01:26:21;18.17;;;11.88;;
37983;SDS011;64625;50.882;4.376;2023-02-12T01:28:49;23.30;;;12.82;;
37983;SDS011;64625;50.882;4.376;2023-02-12T01:31:21;22.42;;;12.82;;
37983;SDS011;64625;50.882;4.376;2023-02-12T01:33:52;17.63;;;13.40;;
37983;SDS011;64625;50.882;4.376;2023-02-12T01:36:19;20.02;;;13.32;;
37983;SDS011;64625;50.882;4.376;2023-02-12T01:38:45;16.90;;;12.10;;
37983;SDS011;64625;50.882;4.376;2023-02-12T01:41:13;20.67;;;12.38;;
37983;SDS011;64625;50.882;4.376;2023-02-12T01:43:42;23.40;;;16.95;;
37983;SDS011;64625;50.882;4.376;2023-02-12T01:46:09;21.02;;;14.48;;
37983;SDS011;64625;50.882;4.376;2023-02-12T01:48:43;22.35;;;12.77;;
37983;SDS011;64625;50.882;4.376;2023-02-12T01:51:11;17.42;;;14.25;;
37983;SDS011;64625;50.882;4.376;2023-02-12T01:53:45;25.02;;;14.80;;
37983;SDS011;64625;50.882;4.376;2023-02-12T01:56:15;25.75;;;17.38;;
37983;SDS011;64625;50.882;4.376;2023-02-12T01:58:42;24.83;;;16.08;;
37983;SDS011;64625;50.882;4.376;2023-02-12T02:01:12;17.23;;;12.80;;
37983;SDS011;64625;50.882;4.376;2023-02-12T02:03:47;21.85;;;12.63;;
37983;SDS011;64625;50.882;4.376;2023-02-12T02:06:19;24.15;;;12.75;;
37983;SDS011;64625;50.882;4.376;2023-02-12T02:08:49;16.38;;;12.93;;
37983;SDS011;64625;50.882;4.376;2023-02-12T02:11:15;18.45;;;13.02;;
37983;SDS011;64625;50.882;4.376;2023-02-12T02:14:00;25.27;;;16.55;;
37983;SDS011;64625;50.882;4.376;2023-02-12T02:16:46;25.48;;;18.45;;
37983;SDS011;64625;50.882;4.376;2023-02-12T02:22:36;22.02;;;12.80;;
37983;SDS011;64625;50.882;4.376;2023-02-12T02:36:17;21.13;;;13.55;;
37983;SDS011;64625;50.882;4.376;2023-02-12T02:38:52;21.10;;;16.23;;
37983;SDS011;64625;50.882;4.376;2023-02-12T02:44:34;21.13;;;15.93;;
37983;SDS011;64625;50.882;4.376;2023-02-12T02:47:07;23.13;;;16.92;;
37983;SDS011;64625;50.882;4.376;2023-02-12T02:49:38;20.80;;;15.95;;
37983;SDS011;64625;50.882;4.376;2023-02-12T02:52:10;26.00;;;17.38;;
37983;SDS011;64625;50.882;4.376;2023-02-12T02:54:46;19.80;;;14.23;;
37983;SDS011;64625;50.882;4.376;2023-02-12T02:57:16;25.20;;;18.77;;
37983;SDS011;64625;50.882;4.376;2023-02-12T02:59:50;18.13;;;13.18;;
37983;SDS011;64625;50.882;4.376;2023-02-12T03:02:32;21.10;;;14.85;;
37983;SDS011;64625;50.882;4.376;2023-02-12T03:05:09;25.58;;;17.13;;
37983;SDS011;64625;50.882;4.376;2023-02-12T03:07:46;27.42;;;18.42;;
37983;SDS011;64625;50.882;4.376;2023-02-12T03:10:17;22.20;;;16.85;;
37983;SDS011;64625;50.882;4.376;2023-02-12T03:17:51;22.65;;;15.93;;
37983;SDS011;64625;50.882;4.376;2023-02-12T03:22:50;22.27;;;16.63;;
37983;SDS011;64625;50.882;4.376;2023-02-12T03:25:22;22.17;;;16.58;;
37983;SDS011;64625;50.882;4.376;2023-02-12T03:28:07;21.08;;;16.40;;
37983;SDS011;64625;50.882;4.376;2023-02-12T03:31:02;20.25;;;15.18;;
37983;SDS011;64625;50.882;4.376;2023-02-12T03:33:41;20.80;;;16.92;;
37983;SDS011;64625;50.882;4.376;2023-02-12T03:39:44;29.35;;;16.10;;
37983;SDS011;64625;50.882;4.376;2023-02-12T03:42:16;22.50;;;17.13;;
37983;SDS011;64625;50.882;4.376;2023-02-12T03:45:18;31.17;;;17.48;;
37983;SDS011;64625;50.882;4.376;2023-02-12T03:48:45;24.48;;;16.65;;
37983;SDS011;64625;50.882;4.376;2023-02-12T03:53:41;24.67;;;17.15;;
37983;SDS011;64625;50.882;4.376;2023-02-12T03:56:17;26.67;;;16.65;;
37983;SDS011;64625;50.882;4.376;2023-02-12T03:58:46;25.38;;;18.67;;
37983;SDS011;64625;50.882;4.376;2023-02-12T04:01:12;21.92;;;16.10;;
37983;SDS011;64625;50.882;4.376;2023-02-12T04:03:38;19.45;;;16.38;;
37983;SDS011;64625;50.882;4.376;2023-02-12T04:06:22;21.83;;;16.42;;
37983;SDS011;64625;50.882;4.376;2023-02-12T04:08:50;25.50;;;18.27;;
37983;SDS011;64625;50.882;4.376;2023-02-12T04:11:24;23.48;;;17.20;;
37983;SDS011;64625;50.882;4.376;2023-02-12T04:14:12;23.77;;;17.55;;
37983;SDS011;64625;50.882;4.376;2023-02-12T04:19:57;33.30;;;19.58;;
37983;SDS011;64625;50.882;4.376;2023-02-12T04:25:41;27.55;;;18.67;;
37983;SDS011;64625;50.882;4.376;2023-02-12T04:31:45;27.23;;;17.17;;
37983;SDS011;64625;50.882;4.376;2023-02-12T04:37:25;26.02;;;19.05;;
37983;SDS011;64625;50.882;4.376;2023-02-12T04:39:59;21.30;;;16.85;;
37983;SDS011;64625;50.882;4.376;2023-02-12T04:42:48;21.60;;;15.75;;
37983;SDS011;64625;50.882;4.376;2023-02-12T04:45:26;29.00;;;16.48;;
37983;SDS011;64625;50.882;4.376;2023-02-12T04:47:57;23.13;;;16.42;;
37983;SDS011;64625;50.882;4.376;2023-02-12T04:50:27;30.05;;;21.30;;
37983;SDS011;64625;50.882;4.376;2023-02-12T04:53:05;25.67;;;19.35;;
37983;SDS011;64625;50.882;4.376;2023-02-12T04:55:31;33.58;;;19.08;;
37983;SDS011;64625;50.882;4.376;2023-02-12T04:57:57;26.88;;;18.92;;
37983;SDS011;64625;50.882;4.376;2023-02-12T05:00:22;23.42;;;18.50;;
37983;SDS011;64625;50.882;4.376;2023-02-12T05:02:50;27.25;;;16.92;;
37983;SDS011;64625;50.882;4.376;2023-02-12T05:05:16;24.20;;;17.23;;
37983;SDS011;64625;50.882;4.376;2023-02-12T05:07:42;26.20;;;17.85;;
37983;SDS011;64625;50.882;4.376;2023-02-12T05:10:07;23.80;;;17.33;;
37983;SDS011;64625;50.882;4.376;2023-02-12T05:12:33;22.45;;;17.63;;
37983;SDS011;64625;50.882;4.376;2023-02-12T05:14:59;23.90;;;17.98;;
37983;SDS011;64625;50.882;4.376;2023-02-12T05:17:25;24.10;;;16.52;;
37983;SDS011;64625;50.882;4.376;2023-02-12T05:19:51;23.77;;;16.75;;
37983;SDS011;64625;50.882;4.376;2023-02-12T05:22:17;24.80;;;16.40;;
37983;SDS011;64625;50.882;4.376;2023-02-12T05:24:46;22.48;;;16.63;;
37983;SDS011;64625;50.882;4.376;2023-02-12T05:27:11;30.77;;;16.30;;
37983;SDS011;64625;50.882;4.376;2023-02-12T05:29:37;22.98;;;16.65;;
37983;SDS011;64625;50.882;4.376;2023-02-12T05:32:03;28.98;;;17.52;;
37983;SDS011;64625;50.882;4.376;2023-02-12T05:34:31;30.92;;;19.15;;
37983;SDS011;64625;50.882;4.376;2023-02-12T05:36:57;25.50;;;17.63;;
37983;SDS011;64625;50.882;4.376;2023-02-12T05:39:24;24.27;;;17.30;;
37983;SDS011;64625;50.882;4.376;2023-02-12T05:41:50;30.52;;;17.60;;
37983;SDS011;64625;50.882;4.376;2023-02-12T05:44:16;24.40;;;16.70;;
37983;SDS011;64625;50.882;4.376;2023-02-12T05:46:42;27.20;;;17.35;;
37983;SDS011;64625;50.882;4.376;2023-02-12T05:49:08;25.80;;;18.55;;
37983;SDS011;64625;50.882;4.376;2023-02-12T05:51:34;28.75;;;18.48;;
37983;SDS011;64625;50.882;4.376;2023-02-12T05:54:01;30.85;;;18.67;;
37983;SDS011;64625;50.882;4.376;2023-02-12T05:56:29;30.55;;;17.52;;
37983;SDS011;64625;50.882;4.376;2023-02-12T05:58:57;23.95;;;16.58;;
37983;SDS011;64625;50.882;4.376;2023-02-12T06:01:36;23.10;;;17.25;;
37983;SDS011;64625;50.882;4.376;2023-02-12T06:04:04;21.58;;;17.17;;
37983;SDS011;64625;50.882;4.376;2023-02-12T06:06:31;23.65;;;18.38;;
37983;SDS011;64625;50.882;4.376;2023-02-12T06:08:58;28.70;;;16.48;;
37983;SDS011;64625;50.882;4.376;2023-02-12T06:11:27;27.02;;;18.63;;
37983;SDS011;64625;50.882;4.376;2023-02-12T06:13:52;26.90;;;18.05;;
37983;SDS011;64625;50.882;4.376;2023-02-12T06:16:22;21.23;;;16.02;;
37983;SDS011;64625;50.882;4.376;2023-02-12T06:18:53;22.27;;;15.68;;
37983;SDS011;64625;50.882;4.376;2023-02-12T06:21:20;22.55;;;15.00;;
37983;SDS011;64625;50.882;4.376;2023-02-12T06:23:50;20.45;;;14.82;;
37983;SDS011;64625;50.882;4.376;2023-02-12T06:26:16;18.27;;;13.27;;
37983;SDS011;64625;50.882;4.376;2023-02-12T06:28:42;20.63;;;16.55;;
37983;SDS011;64625;50.882;4.376;2023-02-12T06:31:18;20.63;;;15.40;;
37983;SDS011;64625;50.882;4.376;2023-02-12T06:33:53;18.92;;;15.25;;
37983;SDS011;64625;50.882;4.376;2023-02-12T06:36:22;28.48;;;16.58;;
37983;SDS011;64625;50.882;4.376;2023-02-12T06:38:48;26.13;;;16.60;;
37983;SDS011;64625;50.882;4.376;2023-02-12T06:41:15;26.90;;;18.15;;
37983;SDS011;64625;50.882;4.376;2023-02-12T06:43:41;25.58;;;17.05;;
37983;SDS011;64625;50.882;4.376;2023-02-12T06:46:07;25.48;;;18.10;;
37983;SDS011;64625;50.882;4.376;2023-02-12T06:48:33;29.38;;;18.83;;
37983;SDS011;64625;50.882;4.376;2023-02-12T06:51:06;27.33;;;17.38;;
37983;SDS011;64625;50.882;4.376;2023-02-12T06:53:35;28.40;;;19.27;;
37983;SDS011;64625;50.882;4.376;2023-02-12T06:56:05;27.58;;;19.77;;
37983;SDS011;64625;50.882;4.376;2023-02-12T06:58:43;30.67;;;19.52;;
37983;SDS011;64625;50.882;4.376;2023-02-12T07:01:13;29.75;;;20.63;;
37983;SDS011;64625;50.882;4.376;2023-02-12T07:03:42;34.25;;;22.10;;
37983;SDS011;64625;50.882;4.376;2023-02-12T07:06:17;34.53;;;23.48;;
37983;SDS011;64625;50.882;4.376;2023-02-12T07:08:43;38.65;;;25.48;;
37983;SDS011;64625;50.882;4.376;2023-02-12T07:11:10;36.78;;;23.17;;
37983;SDS011;64625;50.882;4.376;2023-02-12T07:13:36;40.38;;;24.95;;
37983;SDS011;64625;50.882;4.376;2023-02-12T07:16:04;38.17;;;26.92;;
37983;SDS011;64625;50.882;4.376;2023-02-12T07:18:32;34.28;;;21.33;;
37983;SDS011;64625;50.882;4.376;2023-02-12T07:20:59;35.65;;;19.60;;
37983;SDS011;64625;50.882;4.376;2023-02-12T07:23:25;28.48;;;19.25;;
37983;SDS011;64625;50.882;4.376;2023-02-12T07:25:57;33.20;;;21.25;;
37983;SDS011;64625;50.882;4.376;2023-02-12T07:28:25;35.97;;;22.17;;
37983;SDS011;64625;50.882;4.376;2023-02-12T07:30:51;35.33;;;19.73;;
37983;SDS011;64625;50.882;4.376;2023-02-12T07:33:17;30.95;;;20.45;;
37983;SDS011;64625;50.882;4.376;2023-02-12T07:35:44;28.60;;;19.95;;
37983;SDS011;64625;50.882;4.376;2023-02-12T07:38:10;34.63;;;20.08;;
37983;SDS011;64625;50.882;4.376;2023-02-12T07:40:36;34.92;;;22.15;;
37983;SDS011;64625;50.882;4.376;2023-02-12T07:43:05;33.47;;;21.95;;
37983;SDS011;64625;50.882;4.376;2023-02-12T07:45:30;37.13;;;23.90;;
37983;SDS011;64625;50.882;4.376;2023-02-12T07:47:56;44.05;;;26.20;;
37983;SDS011;64625;50.882;4.376;2023-02-12T07:50:22;30.20;;;22.02;;
37983;SDS011;64625;50.882;4.376;2023-02-12T07:52:48;39.13;;;24.95;;
37983;SDS011;64625;50.882;4.376;2023-02-12T07:55:14;37.85;;;25.65;;
37983;SDS011;64625;50.882;4.376;2023-02-12T07:57:40;37.13;;;23.60;;
37983;SDS011;64625;50.882;4.376;2023-02-12T08:00:07;33.08;;;21.73;;
37983;SDS011;64625;50.882;4.376;2023-02-12T08:02:34;26.63;;;19.08;;
37983;SDS011;64625;50.882;4.376;2023-02-12T08:04:59;28.25;;;18.92;;
37983;SDS011;64625;50.882;4.376;2023-02-12T08:07:25;30.80;;;20.00;;
37983;SDS011;64625;50.882;4.376;2023-02-12T08:09:51;31.77;;;20.92;;
37983;SDS011;64625;50.882;4.376;2023-02-12T08:12:17;35.20;;;22.02;;
37983;SDS011;64625;50.882;4.376;2023-02-12T08:14:43;31.80;;;21.50;;
37983;SDS011;64625;50.882;4.376;2023-02-12T08:17:10;38.33;;;24.60;;
37983;SDS011;64625;50.882;4.376;2023-02-12T08:19:36;40.92;;;26.17;;
37983;SDS011;64625;50.882;4.376;2023-02-12T08:22:02;34.97;;;22.58;;
37983;SDS011;64625;50.882;4.376;2023-02-12T08:24:28;53.42;;;23.75;;
37983;SDS011;64625;50.882;4.376;2023-02-12T08:26:55;38.38;;;23.27;;
37983;SDS011;64625;50.882;4.376;2023-02-12T08:29:22;43.33;;;25.80;;
37983;SDS011;64625;50.882;4.376;2023-02-12T08:31:50;37.70;;;24.17;;
37983;SDS011;64625;50.882;4.376;2023-02-12T08:34:22;44.25;;;26.25;;
37983;SDS011;64625;50.882;4.376;2023-02-12T08:36:56;30.95;;;22.40;;
37983;SDS011;64625;50.882;4.376;2023-02-12T08:39:23;34.72;;;22.58;;
37983;SDS011;64625;50.882;4.376;2023-02-12T08:41:50;50.88;;;23.83;;
37983;SDS011;64625;50.882;4.376;2023-02-12T08:44:19;33.80;;;22.90;;
37983;SDS011;64625;50.882;4.376;2023-02-12T08:46:45;35.50;;;21.63;;
37983;SDS011;64625;50.882;4.376;2023-02-12T08:49:15;32.15;;;21.23;;
37983;SDS011;64625;50.882;4.376;2023-02-12T08:51:44;41.90;;;23.65;;
37983;SDS011;64625;50.882;4.376;2023-02-12T08:54:14;36.05;;;22.90;;
37983;SDS011;64625;50.882;4.376;2023-02-12T08:56:41;32.65;;;22.55;;
37983;SDS011;64625;50.882;4.376;2023-02-12T08:59:13;37.72;;;24.63;;
37983;SDS011;64625;50.882;4.376;2023-02-12T09:01:40;35.37;;;21.57;;
37983;SDS011;64625;50.882;4.376;2023-02-12T09:04:07;33.15;;;22.00;;
37983;SDS011;64625;50.882;4.376;2023-02-12T09:06:38;36.25;;;22.35;;
37983;SDS011;64625;50.882;4.376;2023-02-12T09:09:04;35.13;;;20.55;;
37983;SDS011;64625;50.882;4.376;2023-02-12T09:11:32;33.50;;;23.58;;
37983;SDS011;64625;50.882;4.376;2023-02-12T09:14:03;34.83;;;22.40;;
37983;SDS011;64625;50.882;4.376;2023-02-12T09:16:32;40.90;;;22.88;;
37983;SDS011;64625;50.882;4.376;2023-02-12T09:18:59;37.10;;;22.17;;
37983;SDS011;64625;50.882;4.376;2023-02-12T09:21:25;44.42;;;21.90;;
37983;SDS011;64625;50.882;4.376;2023-02-12T09:23:51;47.75;;;23.02;;
37983;SDS011;64625;50.882;4.376;2023-02-12T09:26:19;33.00;;;20.38;;
37983;SDS011;64625;50.882;4.376;2023-02-12T09:28:47;32.83;;;22.17;;
37983;SDS011;64625;50.882;4.376;2023-02-12T09:31:18;32.25;;;22.35;;
37983;SDS011;64625;50.882;4.376;2023-02-12T09:33:50;31.58;;;21.42;;
37983;SDS011;64625;50.882;4.376;2023-02-12T09:36:17;32.55;;;22.88;;
37983;SDS011;64625;50.882;4.376;2023-02-12T09:38:43;32.10;;;20.45;;
37983;SDS011;64625;50.882;4.376;2023-02-12T09:44:21;31.30;;;20.00;;
37983;SDS011;64625;50.882;4.376;2023-02-12T09:46:57;32.42;;;20.33;;
37983;SDS011;64625;50.882;4.376;2023-02-12T09:52:19;37.28;;;18.85;;
37983;SDS011;64625;50.882;4.376;2023-02-12T09:54:50;33.42;;;18.45;;
37983;SDS011;64625;50.882;4.376;2023-02-12T09:57:18;29.05;;;19.17;;
37983;SDS011;64625;50.882;4.376;2023-02-12T09:59:58;27.40;;;18.70;;
37983;SDS011;64625;50.882;4.376;2023-02-12T10:02:37;37.35;;;21.65;;
37983;SDS011;64625;50.882;4.376;2023-02-12T10:05:05;37.38;;;24.30;;
37983;SDS011;64625;50.882;4.376;2023-02-12T10:10:47;42.40;;;23.77;;
37983;SDS011;64625;50.882;4.376;2023-02-12T10:13:46;48.58;;;26.80;;
37983;SDS011;64625;50.882;4.376;2023-02-12T10:16:36;47.90;;;27.83;;
37983;SDS011;64625;50.882;4.376;2023-02-12T10:19:14;52.05;;;25.83;;
37983;SDS011;64625;50.882;4.376;2023-02-12T10:27:35;44.28;;;26.58;;
37983;SDS011;64625;50.882;4.376;2023-02-12T10:30:17;43.20;;;26.38;;
37983;SDS011;64625;50.882;4.376;2023-02-12T10:35:50;43.80;;;25.10;;
37983;SDS011;64625;50.882;4.376;2023-02-12T10:38:20;38.30;;;25.50;;
37983;SDS011;64625;50.882;4.376;2023-02-12T10:40:52;39.58;;;26.98;;
37983;SDS011;64625;50.882;4.376;2023-02-12T10:43:21;42.85;;;26.25;;
37983;SDS011;64625;50.882;4.376;2023-02-12T10:45:48;39.05;;;24.38;;
37983;SDS011;64625;50.882;4.376;2023-02-12T10:48:19;39.55;;;23.70;;
37983;SDS011;64625;50.882;4.376;2023-02-12T10:51:17;38.00;;;24.23;;
37983;SDS011;64625;50.882;4.376;2023-02-12T10:53:49;37.20;;;22.42;;
37983;SDS011;64625;50.882;4.376;2023-02-12T10:56:21;44.42;;;24.60;;
37983;SDS011;64625;50.882;4.376;2023-02-12T11:01:27;41.55;;;24.55;;
37983;SDS011;64625;50.882;4.376;2023-02-12T11:03:56;41.70;;;23.92;;
37983;SDS011;64625;50.882;4.376;2023-02-12T11:06:25;38.38;;;24.58;;
37983;SDS011;64625;50.882;4.376;2023-02-12T11:08:53;36.70;;;23.23;;
37983;SDS011;64625;50.882;4.376;2023-02-12T11:13:59;41.38;;;23.65;;
37983;SDS011;64625;50.882;4.376;2023-02-12T11:16:33;36.25;;;21.65;;
37983;SDS011;64625;50.882;4.376;2023-02-12T11:19:03;35.70;;;22.55;;
37983;SDS011;64625;50.882;4.376;2023-02-12T11:21:42;38.70;;;23.15;;
37983;SDS011;64625;50.882;4.376;2023-02-12T11:29:47;36.30;;;21.95;;
37983;SDS011;64625;50.882;4.376;2023-02-12T11:32:37;36.38;;;21.98;;
37983;SDS011;64625;50.882;4.376;2023-02-12T11:37:48;34.90;;;18.85;;
37983;SDS011;64625;50.882;4.376;2023-02-12T11:40:19;32.30;;;21.88;;
37983;SDS011;64625;50.882;4.376;2023-02-12T11:42:49;35.30;;;19.70;;
37983;SDS011;64625;50.882;4.376;2023-02-12T11:45:23;33.05;;;19.83;;
37983;SDS011;64625;50.882;4.376;2023-02-12T11:47:55;36.45;;;18.58;;
37983;SDS011;64625;50.882;4.376;2023-02-12T11:53:03;31.60;;;17.17;;
37983;SDS011;64625;50.882;4.376;2023-02-12T11:55:37;31.63;;;19.88;;
37983;SDS011;64625;50.882;4.376;2023-02-12T12:06:20;29.33;;;17.40;;
37983;SDS011;64625;50.882;4.376;2023-02-12T12:17:36;24.70;;;16.08;;
37983;SDS011;64625;50.882;4.376;2023-02-12T12:20:34;27.38;;;14.80;;
37983;SDS011;64625;50.882;4.376;2023-02-12T12:23:08;27.23;;;16.45;;
37983;SDS011;64625;50.882;4.376;2023-02-12T12:26:03;26.52;;;16.40;;
37983;SDS011;64625;50.882;4.376;2023-02-12T12:28:39;27.38;;;17.65;;
37983;SDS011;64625;50.882;4.376;2023-02-12T12:31:19;31.52;;;17.60;;
37983;SDS011;64625;50.882;4.376;2023-02-12T12:34:10;35.67;;;18.00;;
37983;SDS011;64625;50.882;4.376;2023-02-12T12:39:27;26.40;;;16.77;;
37983;SDS011;64625;50.882;4.376;2023-02-12T12:47:55;29.73;;;17.27;;
37983;SDS011;64625;50.882;4.376;2023-02-12T12:53:15;21.65;;;14.68;;
37983;SDS011;64625;50.882;4.376;2023-02-12T12:56:08;25.92;;;16.08;;
37983;SDS011;64625;50.882;4.376;2023-02-12T13:04:29;29.05;;;15.93;;
37983;SDS011;64625;50.882;4.376;2023-02-12T13:10:32;34.50;;;17.25;;
37983;SDS011;64625;50.882;4.376;2023-02-12T13:29:26;34.30;;;18.33;;
37983;SDS011;64625;50.882;4.376;2023-02-12T13:34:49;27.38;;;16.75;;
37983;SDS011;64625;50.882;4.376;2023-02-12T13:37:18;26.25;;;16.48;;
37983;SDS011;64625;50.882;4.376;2023-02-12T13:39:53;37.00;;;17.10;;
37983;SDS011;64625;50.882;4.376;2023-02-12T13:51:13;30.55;;;19.13;;
37983;SDS011;64625;50.882;4.376;2023-02-12T13:54:09;33.47;;;18.13;;
37983;SDS011;64625;50.882;4.376;2023-02-12T13:57:01;29.15;;;17.38;;
37983;SDS011;64625;50.882;4.376;2023-02-12T14:02:01;31.15;;;19.65;;
37983;SDS011;64625;50.882;4.376;2023-02-12T14:12:47;40.30;;;21.48;;
37983;SDS011;64625;50.882;4.376;2023-02-12T14:15:28;33.15;;;20.08;;
37983;SDS011;64625;50.882;4.376;2023-02-12T14:18:04;38.92;;;21.95;;
37983;SDS011;64625;50.882;4.376;2023-02-12T14:20:44;32.08;;;19.88;;
37983;SDS011;64625;50.882;4.376;2023-02-12T14:23:31;39.38;;;21.85;;
37983;SDS011;64625;50.882;4.376;2023-02-12T14:25:57;31.52;;;19.52;;
37983;SDS011;64625;50.882;4.376;2023-02-12T14:28:52;31.55;;;22.45;;
37983;SDS011;64625;50.882;4.376;2023-02-12T14:31:27;31.42;;;19.20;;
37983;SDS011;64625;50.882;4.376;2023-02-12T14:41:29;35.85;;;20.40;;
37983;SDS011;64625;50.882;4.376;2023-02-12T14:46:54;31.50;;;20.05;;
37983;SDS011;64625;50.882;4.376;2023-02-12T14:49:33;36.40;;;18.80;;
37983;SDS011;64625;50.882;4.376;2023-02-12T14:52:14;37.53;;;21.25;;
37983;SDS011;64625;50.882;4.376;2023-02-12T14:54:45;30.98;;;19.13;;
37983;SDS011;64625;50.882;4.376;2023-02-12T14:57:58;35.50;;;19.88;;
37983;SDS011;64625;50.882;4.376;2023-02-12T15:00:27;32.28;;;19.65;;
37983;SDS011;64625;50.882;4.376;2023-02-12T15:05:41;35.57;;;18.83;;
37983;SDS011;64625;50.882;4.376;2023-02-12T15:11:51;32.95;;;19.27;;
37983;SDS011;64625;50.882;4.376;2023-02-12T15:14:33;39.47;;;21.27;;
37983;SDS011;64625;50.882;4.376;2023-02-12T15:17:20;41.17;;;20.50;;
37983;SDS011;64625;50.882;4.376;2023-02-12T15:19:54;34.67;;;17.42;;
37983;SDS011;64625;50.882;4.376;2023-02-12T15:22:33;30.73;;;20.10;;
37983;SDS011;64625;50.882;4.376;2023-02-12T15:27:53;30.88;;;18.95;;
37983;SDS011;64625;50.882;4.376;2023-02-12T15:30:26;37.83;;;21.13;;
37983;SDS011;64625;50.882;4.376;2023-02-12T15:33:03;33.30;;;21.00;;
37983;SDS011;64625;50.882;4.376;2023-02-12T15:37:59;38.20;;;19.83;;
37983;SDS011;64625;50.882;4.376;2023-02-12T15:40:29;37.58;;;20.42;;
37983;SDS011;64625;50.882;4.376;2023-02-12T15:42:56;39.38;;;20.83;;
37983;SDS011;64625;50.882;4.376;2023-02-12T15:45:27;38.15;;;20.98;;
37983;SDS011;64625;50.882;4.376;2023-02-12T15:48:14;41.97;;;22.27;;
37983;SDS011;64625;50.882;4.376;2023-02-12T15:53:13;40.80;;;21.55;;
37983;SDS011;64625;50.882;4.376;2023-02-12T15:55:43;36.45;;;20.55;;
37983;SDS011;64625;50.882;4.376;2023-02-12T15:58:21;39.38;;;22.15;;
37983;SDS011;64625;50.882;4.376;2023-02-12T16:00:49;36.70;;;21.35;;
37983;SDS011;64625;50.882;4.376;2023-02-12T16:03:26;34.67;;;21.08;;
37983;SDS011;64625;50.882;4.376;2023-02-12T16:06:06;38.05;;;22.48;;
37983;SDS011;64625;50.882;4.376;2023-02-12T16:08:44;37.90;;;21.70;;
37983;SDS011;64625;50.882;4.376;2023-02-12T16:11:18;33.92;;;21.02;;
37983;SDS011;64625;50.882;4.376;2023-02-12T16:13:47;30.55;;;20.95;;
37983;SDS011;64625;50.882;4.376;2023-02-12T16:16:45;45.85;;;23.20;;
37983;SDS011;64625;50.882;4.376;2023-02-12T16:21:50;32.53;;;21.98;;
37983;SDS011;64625;50.882;4.376;2023-02-12T16:24:34;33.90;;;20.23;;
37983;SDS011;64625;50.882;4.376;2023-02-12T16:29:58;32.75;;;20.63;;
37983;SDS011;64625;50.882;4.376;2023-02-12T16:32:35;31.48;;;20.52;;
37983;SDS011;64625;50.882;4.376;2023-02-12T16:48:02;42.35;;;21.17;;
37983;SDS011;64625;50.882;4.376;2023-02-12T16:50:47;36.10;;;20.77;;
37983;SDS011;64625;50.882;4.376;2023-02-12T16:53:25;42.92;;;25.05;;
37983;SDS011;64625;50.882;4.376;2023-02-12T16:55:51;47.50;;;22.95;;
37983;SDS011;64625;50.882;4.376;2023-02-12T16:58:21;41.30;;;22.85;;
37983;SDS011;64625;50.882;4.376;2023-02-12T17:00:47;38.88;;;24.05;;
37983;SDS011;64625;50.882;4.376;2023-02-12T17:03:13;39.97;;;22.73;;
37983;SDS011;64625;50.882;4.376;2023-02-12T17:05:41;42.80;;;22.08;;
37983;SDS011;64625;50.882;4.376;2023-02-12T17:08:18;44.88;;;25.02;;
37983;SDS011;64625;50.882;4.376;2023-02-12T17:10:45;39.13;;;23.30;;
37983;SDS011;64625;50.882;4.376;2023-02-12T17:13:12;41.35;;;22.88;;
37983;SDS011;64625;50.882;4.376;2023-02-12T17:15:55;41.65;;;23.80;;
37983;SDS011;64625;50.882;4.376;2023-02-12T17:18:28;42.03;;;24.02;;
37983;SDS011;64625;50.882;4.376;2023-02-12T17:20:58;42.10;;;24.05;;
37983;SDS011;64625;50.882;4.376;2023-02-12T17:23:33;46.10;;;25.25;;
37983;SDS011;64625;50.882;4.376;2023-02-12T17:26:00;45.97;;;26.42;;
37983;SDS011;64625;50.882;4.376;2023-02-12T17:28:26;47.00;;;26.15;;
37983;SDS011;64625;50.882;4.376;2023-02-12T17:30:52;43.47;;;25.40;;
37983;SDS011;64625;50.882;4.376;2023-02-12T17:33:18;50.35;;;26.35;;
37983;SDS011;64625;50.882;4.376;2023-02-12T17:35:44;45.08;;;24.88;;
37983;SDS011;64625;50.882;4.376;2023-02-12T17:38:10;48.10;;;26.05;;
37983;SDS011;64625;50.882;4.376;2023-02-12T17:40:36;46.42;;;24.48;;
37983;SDS011;64625;50.882;4.376;2023-02-12T17:43:03;44.45;;;24.88;;
37983;SDS011;64625;50.882;4.376;2023-02-12T17:45:30;50.13;;;27.23;;
37983;SDS011;64625;50.882;4.376;2023-02-12T17:47:56;51.28;;;26.90;;
37983;SDS011;64625;50.882;4.376;2023-02-12T17:50:22;52.05;;;27.80;;
37983;SDS011;64625;50.882;4.376;2023-02-12T17:52:48;49.85;;;28.00;;
37983;SDS011;64625;50.882;4.376;2023-02-12T17:55:14;56.90;;;28.45;;
37983;SDS011;64625;50.882;4.376;2023-02-12T17:57:42;42.63;;;24.65;;
37983;SDS011;64625;50.882;4.376;2023-02-12T18:00:09;59.90;;;29.88;;
37983;SDS011;64625;50.882;4.376;2023-02-12T18:02:36;47.08;;;25.65;;